createdAt,value
2022-11-15T00:01:45.119Z,2.97
2022-11-15T00:04:30.450Z,3.42
2022-11-15T00:07:40.462Z,3.42
2022-11-15T00:10:21.311Z,3.45
2022-11-15T00:13:14.292Z,3.80
2022-11-15T00:16:00.743Z,3.70
2022-11-15T00:18:50.303Z,7.72
2022-11-15T00:21:36.529Z,7.97
2022-11-15T00:24:21.769Z,5.57
2022-11-15T00:27:08.162Z,4.72
2022-11-15T00:29:53.693Z,6.68
2022-11-15T00:32:38.951Z,7.90
2022-11-15T00:35:24.467Z,5.57
2022-11-15T00:38:09.625Z,3.47
2022-11-15T00:40:55.118Z,2.65
2022-11-15T00:43:40.984Z,3.35
2022-11-15T00:46:26.899Z,2.95
2022-11-15T00:49:12.243Z,3.20
2022-11-15T00:51:57.643Z,3.42
2022-11-15T00:54:43.124Z,2.63
2022-11-15T00:57:28.777Z,2.70
2022-11-15T01:00:14.574Z,2.80
2022-11-15T01:03:01.599Z,3.33
2022-11-15T01:05:47.190Z,3.35
2022-11-15T01:08:32.730Z,3.05
2022-11-15T01:11:18.051Z,3.10
2022-11-15T01:14:03.376Z,3.40
2022-11-15T01:16:48.617Z,3.08
2022-11-15T01:19:34.075Z,3.47
2022-11-15T01:22:19.918Z,2.92
2022-11-15T01:25:05.435Z,3.17
2022-11-15T01:27:50.628Z,2.88
2022-11-15T01:30:37.511Z,2.75
2022-11-15T01:33:22.845Z,3.58
2022-11-15T01:36:12.300Z,2.90
2022-11-15T01:38:59.158Z,3.05
2022-11-15T01:41:44.770Z,3.00
2022-11-15T01:44:41.418Z,3.45
2022-11-15T01:47:30.946Z,2.88
2022-11-15T01:50:23.049Z,3.35
2022-11-15T01:53:08.611Z,2.88
2022-11-15T01:55:54.809Z,2.65
2022-11-15T01:58:43.070Z,2.78
2022-11-15T02:01:31.722Z,3.45
2022-11-15T02:04:28.026Z,2.67
2022-11-15T02:07:17.061Z,2.90
2022-11-15T02:10:10.300Z,2.60
2022-11-15T02:12:57.839Z,2.00
2022-11-15T02:16:12.018Z,2.63
2022-11-15T02:19:15.044Z,2.53
2022-11-15T02:22:26.104Z,2.70
2022-11-15T02:25:42.001Z,2.72
2022-11-15T02:29:07.363Z,3.17
2022-11-15T02:32:08.845Z,2.40
2022-11-15T02:35:30.269Z,3.30
2022-11-15T02:38:30.339Z,2.83
2022-11-15T02:41:25.006Z,2.58
2022-11-15T02:44:20.088Z,2.65
2022-11-15T02:47:14.524Z,2.95
2022-11-15T02:50:05.267Z,2.65
2022-11-15T02:52:51.735Z,2.42
2022-11-15T02:55:45.982Z,2.20
2022-11-15T02:58:47.010Z,2.28
2022-11-15T03:02:00.198Z,2.95
2022-11-15T03:04:55.078Z,2.40
2022-11-15T03:07:40.285Z,2.97
2022-11-15T03:10:41.414Z,2.83
2022-11-15T03:13:28.985Z,2.63
2022-11-15T03:16:28.785Z,2.50
2022-11-15T03:19:36.420Z,2.60
2022-11-15T03:22:25.455Z,2.50
2022-11-15T03:25:17.248Z,2.72
2022-11-15T03:28:06.346Z,3.00
2022-11-15T03:30:54.436Z,3.30
2022-11-15T03:33:40.931Z,2.80
2022-11-15T03:36:27.996Z,3.15
2022-11-15T03:39:20.267Z,2.45
2022-11-15T03:42:17.650Z,2.80
2022-11-15T03:45:07.965Z,2.33
2022-11-15T03:48:13.980Z,2.97
2022-11-15T03:50:59.373Z,2.75
2022-11-15T03:53:47.775Z,2.65
2022-11-15T03:56:33.115Z,2.40
2022-11-15T03:59:18.506Z,2.15
2022-11-15T04:02:03.971Z,2.30
2022-11-15T04:04:49.279Z,3.13
2022-11-15T04:07:34.625Z,2.30
2022-11-15T04:10:20.248Z,3.13
2022-11-15T04:13:05.608Z,2.28
2022-11-15T04:15:50.934Z,2.40
2022-11-15T04:18:39.188Z,2.33
2022-11-15T04:21:43.293Z,2.35
2022-11-15T04:24:28.860Z,2.25
2022-11-15T04:27:14.728Z,1.95
2022-11-15T04:30:00.137Z,1.95
2022-11-15T04:32:45.316Z,2.03
2022-11-15T04:35:31.039Z,1.98
2022-11-15T04:38:16.530Z,2.40
2022-11-15T04:41:02.178Z,2.70
2022-11-15T04:43:47.730Z,2.03
2022-11-15T04:46:33.125Z,3.03
2022-11-15T04:49:18.501Z,2.17
2022-11-15T04:52:03.913Z,1.75
2022-11-15T04:54:49.095Z,2.60
2022-11-15T04:57:34.661Z,1.85
2022-11-15T05:00:20.136Z,2.38
2022-11-15T05:03:24.457Z,2.67
2022-11-15T05:06:09.993Z,2.20
2022-11-15T05:08:55.762Z,1.33
2022-11-15T05:11:41.834Z,2.30
2022-11-15T05:14:27.070Z,2.08
2022-11-15T05:17:12.421Z,2.03
2022-11-15T05:19:58.014Z,2.22
2022-11-15T05:22:43.110Z,2.15
2022-11-15T05:25:28.638Z,1.80
2022-11-15T05:28:14.198Z,2.38
2022-11-15T05:31:07.471Z,2.03
2022-11-15T05:33:53.109Z,2.15
2022-11-15T05:36:40.190Z,1.83
2022-11-15T05:39:26.977Z,2.08
2022-11-15T05:42:14.908Z,2.65
2022-11-15T05:45:02.281Z,3.15
2022-11-15T05:47:49.608Z,3.15
2022-11-15T05:50:36.693Z,2.38
2022-11-15T05:53:26.897Z,2.20
2022-11-15T05:56:13.505Z,2.35
2022-11-15T05:59:00.233Z,2.30
2022-11-15T06:01:45.779Z,2.10
2022-11-15T06:04:31.268Z,1.80
2022-11-15T06:07:16.423Z,1.95
2022-11-15T06:10:01.824Z,1.80
2022-11-15T06:12:46.990Z,2.00
2022-11-15T06:15:35.198Z,2.40
2022-11-15T06:18:20.432Z,2.00
2022-11-15T06:21:06.414Z,2.03
2022-11-15T06:23:51.606Z,2.30
2022-11-15T06:26:37.441Z,2.65
2022-11-15T06:29:22.778Z,1.60
2022-11-15T06:32:08.175Z,2.53
2022-11-15T06:34:53.892Z,3.30
2022-11-15T06:37:39.182Z,3.00
2022-11-15T06:40:24.455Z,3.00
2022-11-15T06:43:09.943Z,2.65
2022-11-15T06:45:55.442Z,2.80
2022-11-15T06:48:40.801Z,3.22
2022-11-15T06:51:26.285Z,2.40
2022-11-15T06:54:11.515Z,2.55
2022-11-15T06:56:56.925Z,3.22
2022-11-15T06:59:42.271Z,2.13
2022-11-15T07:02:28.227Z,1.98
2022-11-15T07:05:14.087Z,3.35
2022-11-15T07:08:00.299Z,3.35
2022-11-15T07:10:45.713Z,4.18
2022-11-15T07:13:34.783Z,4.18
2022-11-15T07:16:20.764Z,2.60
2022-11-15T07:19:06.041Z,2.40
2022-11-15T07:21:51.245Z,2.13
2022-11-15T07:24:36.611Z,3.13
2022-11-15T07:27:22.415Z,4.18
2022-11-15T07:30:08.475Z,3.28
2022-11-15T07:33:01.412Z,3.88
2022-11-15T07:35:49.326Z,3.17
2022-11-15T07:38:42.278Z,3.20
2022-11-15T07:41:28.169Z,2.67
2022-11-15T07:44:13.585Z,2.72
2022-11-15T07:46:59.074Z,3.10
2022-11-15T07:49:44.412Z,2.60
2022-11-15T07:52:29.979Z,3.28
2022-11-15T07:55:15.366Z,4.03
2022-11-15T07:58:02.937Z,2.85
2022-11-15T08:00:48.311Z,3.08
2022-11-15T08:03:34.707Z,2.42
2022-11-15T08:06:20.625Z,2.47
2022-11-15T08:09:06.084Z,1.88
2022-11-15T08:11:51.447Z,2.05
2022-11-15T08:14:37.013Z,2.92
2022-11-15T08:17:23.732Z,2.30
2022-11-15T08:20:09.696Z,2.55
2022-11-15T08:22:54.806Z,2.47
2022-11-15T08:25:40.685Z,2.42
2022-11-15T08:28:25.814Z,2.55
2022-11-15T08:31:16.550Z,2.17
2022-11-15T08:34:02.184Z,2.75
2022-11-15T08:36:47.509Z,1.70
2022-11-15T08:39:33.258Z,2.65
2022-11-15T08:42:20.172Z,2.33
2022-11-15T08:45:06.131Z,2.25
2022-11-15T08:47:54.388Z,2.38
2022-11-15T08:50:39.832Z,2.72
2022-11-15T08:53:25.046Z,3.20
2022-11-15T08:56:14.617Z,3.85
2022-11-15T08:59:00.033Z,3.20
2022-11-15T09:01:45.284Z,2.28
2022-11-15T09:04:30.701Z,2.20
2022-11-15T09:07:16.328Z,2.67
2022-11-15T09:10:01.903Z,3.97
2022-11-15T09:12:49.448Z,2.60
2022-11-15T09:15:35.383Z,2.47
2022-11-15T09:18:23.225Z,1.90
2022-11-15T09:21:08.823Z,1.98
2022-11-15T09:23:54.047Z,3.20
2022-11-15T09:26:40.003Z,2.85
2022-11-15T09:29:25.839Z,2.90
2022-11-15T09:32:11.032Z,2.67
2022-11-15T09:34:56.194Z,2.50
2022-11-15T09:37:41.444Z,4.05
2022-11-15T09:40:27.291Z,2.10
2022-11-15T09:43:43.654Z,2.30
2022-11-15T09:47:03.218Z,2.00
2022-11-15T09:50:14.709Z,2.13
2022-11-15T09:52:45.952Z,2.38
2022-11-15T09:55:22.066Z,1.75
2022-11-15T09:57:54.426Z,1.95
2022-11-15T10:00:48.192Z,1.83
2022-11-15T10:03:29.880Z,2.35
2022-11-15T10:06:01.069Z,2.58
2022-11-15T10:08:46.557Z,1.88
2022-11-15T10:11:37.871Z,1.75
2022-11-15T10:14:16.103Z,2.05
2022-11-15T10:17:10.520Z,1.98
2022-11-15T10:19:58.494Z,1.40
2022-11-15T10:22:30.905Z,1.60
2022-11-15T10:25:09.745Z,1.98
2022-11-15T10:27:36.988Z,2.35
2022-11-15T10:30:11.132Z,1.70
2022-11-15T10:32:38.017Z,1.98
2022-11-15T10:35:27.894Z,2.20
2022-11-15T10:38:09.632Z,2.50
2022-11-15T10:43:10.700Z,3.08
2022-11-15T10:45:39.177Z,2.60
2022-11-15T10:48:15.135Z,2.53
2022-11-15T10:50:47.606Z,2.08
2022-11-15T10:53:42.769Z,2.28
2022-11-15T10:56:16.599Z,1.90
2022-11-15T10:58:50.817Z,1.75
2022-11-15T11:01:20.908Z,2.17
2022-11-15T11:04:02.684Z,2.67
2022-11-15T11:06:30.691Z,2.83
2022-11-15T11:09:00.782Z,2.55
2022-11-15T11:11:48.208Z,2.92
2022-11-15T11:14:34.664Z,2.95
2022-11-15T11:17:14.227Z,2.20
2022-11-15T11:19:53.538Z,2.08
2022-11-15T11:22:29.245Z,2.22
2022-11-15T11:25:21.505Z,2.25
2022-11-15T11:28:03.112Z,2.65
2022-11-15T11:30:49.366Z,2.30
2022-11-15T11:33:29.029Z,2.00
2022-11-15T11:36:07.133Z,2.05
2022-11-15T11:38:48.560Z,1.90
2022-11-15T11:41:40.297Z,2.17
2022-11-15T11:44:23.156Z,1.90
2022-11-15T11:47:00.472Z,1.90
2022-11-15T11:49:50.241Z,1.65
2022-11-15T11:52:34.312Z,2.00
2022-11-15T11:55:14.568Z,2.15
2022-11-15T11:58:14.198Z,1.88
2022-11-15T12:00:53.149Z,1.73
2022-11-15T12:03:47.184Z,1.77
2022-11-15T12:06:54.284Z,2.05
2022-11-15T12:09:40.080Z,1.67
2022-11-15T12:12:10.071Z,1.55
2022-11-15T12:14:36.829Z,1.60
2022-11-15T12:17:03.817Z,1.75
2022-11-15T12:19:31.367Z,1.60
2022-11-15T12:22:09.777Z,2.35
2022-11-15T12:24:42.031Z,3.20
2022-11-15T12:27:21.943Z,1.67
2022-11-15T12:29:57.786Z,1.75
2022-11-15T12:34:56.167Z,1.60
2022-11-15T12:37:41.480Z,2.50
2022-11-15T12:40:13.758Z,2.08
2022-11-15T12:42:57.071Z,1.75
2022-11-15T12:45:45.480Z,1.77
2022-11-15T12:48:18.162Z,1.70
2022-11-15T12:50:56.711Z,1.45
2022-11-15T12:53:26.182Z,2.10
2022-11-15T12:56:21.173Z,2.25
2022-11-15T12:58:55.884Z,2.53
2022-11-15T13:01:31.528Z,1.83
2022-11-15T13:04:25.722Z,1.83
2022-11-15T13:06:58.044Z,1.85
2022-11-15T13:09:36.444Z,2.10
2022-11-15T13:12:14.610Z,1.83
2022-11-15T13:14:42.858Z,1.65
2022-11-15T13:17:35.434Z,1.40
2022-11-15T13:20:17.830Z,1.58
2022-11-15T13:22:55.438Z,1.95
2022-11-15T13:25:41.517Z,1.80
2022-11-15T13:28:16.977Z,1.58
2022-11-15T13:30:56.350Z,1.15
2022-11-15T13:33:34.541Z,2.22
2022-11-15T13:36:10.038Z,1.40
2022-11-15T13:38:39.024Z,1.33
2022-11-15T13:41:21.310Z,1.35
2022-11-15T13:43:50.154Z,1.60
2022-11-15T13:46:21.088Z,1.80
2022-11-15T13:48:52.780Z,1.33
2022-11-15T13:51:28.235Z,1.77
2022-11-15T13:54:08.437Z,2.30
2022-11-15T13:56:36.342Z,1.63
2022-11-15T13:59:11.311Z,1.70
2022-11-15T14:01:42.039Z,1.27
2022-11-15T14:04:15.055Z,1.58
2022-11-15T14:06:55.096Z,1.80
2022-11-15T14:09:39.871Z,1.85
2022-11-15T14:12:30.513Z,1.60
2022-11-15T14:14:58.798Z,2.25
2022-11-15T14:17:31.257Z,2.33
2022-11-15T14:19:58.897Z,1.98
2022-11-15T14:22:28.996Z,2.25
2022-11-15T14:25:13.770Z,1.90
2022-11-15T14:27:41.946Z,1.73
2022-11-15T14:30:17.933Z,2.10
2022-11-15T14:32:49.018Z,1.80
2022-11-15T14:35:20.107Z,2.22
2022-11-15T14:37:47.387Z,2.40
2022-11-15T14:40:22.664Z,2.58
2022-11-15T14:42:50.749Z,2.20
2022-11-15T14:45:20.316Z,2.10
2022-11-15T14:47:47.376Z,2.25
2022-11-15T14:50:15.863Z,2.00
2022-11-15T14:52:43.668Z,1.40
2022-11-15T14:55:25.884Z,1.67
2022-11-15T14:57:55.857Z,1.90
2022-11-15T15:00:23.510Z,2.10
2022-11-15T15:02:53.078Z,1.92
2022-11-15T15:05:25.853Z,1.85
2022-11-15T15:07:54.098Z,2.15
2022-11-15T15:13:21.125Z,8.00
2022-11-15T15:15:49.291Z,2.00
2022-11-15T15:18:16.419Z,2.00
2022-11-15T15:20:44.517Z,2.25
2022-11-15T15:23:19.820Z,2.10
2022-11-15T15:25:49.765Z,2.72
2022-11-15T15:28:16.824Z,1.80
2022-11-15T15:30:43.636Z,1.55
2022-11-15T15:33:10.462Z,1.67
2022-11-15T15:35:37.492Z,1.70
2022-11-15T15:38:05.148Z,1.55
2022-11-15T15:40:34.481Z,2.10
2022-11-15T15:43:01.571Z,1.88
2022-11-15T15:45:31.702Z,1.75
2022-11-15T15:48:00.910Z,1.77
2022-11-15T15:50:28.825Z,1.88
2022-11-15T15:53:02.054Z,1.63
2022-11-15T15:55:29.664Z,1.52
2022-11-15T15:57:56.614Z,2.05
2022-11-15T16:00:25.727Z,2.00
2022-11-15T16:02:53.419Z,2.15
2022-11-15T16:05:20.635Z,1.70
2022-11-15T16:07:48.435Z,2.20
2022-11-15T16:10:21.260Z,1.83
2022-11-15T16:12:48.660Z,1.70
2022-11-15T16:15:15.841Z,1.75
2022-11-15T16:17:50.797Z,2.92
2022-11-15T16:20:57.780Z,1.85
2022-11-15T16:23:25.590Z,2.80
2022-11-15T16:25:56.975Z,3.08
2022-11-15T16:28:25.540Z,2.50
2022-11-15T16:31:05.625Z,2.17
2022-11-15T16:33:33.209Z,2.00
2022-11-15T16:36:00.236Z,2.00
2022-11-15T16:38:27.246Z,1.65
2022-11-15T16:40:54.019Z,1.40
2022-11-15T16:43:20.769Z,1.65
2022-11-15T16:45:47.738Z,1.92
2022-11-15T16:48:28.116Z,1.83
2022-11-15T16:50:59.347Z,1.85
2022-11-15T16:53:27.603Z,1.42
2022-11-15T16:55:55.580Z,2.17
2022-11-15T16:58:22.336Z,1.52
2022-11-15T17:00:57.224Z,1.65
2022-11-15T17:03:24.868Z,1.75
2022-11-15T17:05:52.002Z,1.60
2022-11-15T17:08:20.732Z,1.90
2022-11-15T17:10:47.546Z,1.45
2022-11-15T17:13:14.519Z,1.38
2022-11-15T17:15:41.724Z,1.50
2022-11-15T17:18:12.369Z,1.70
2022-11-15T17:20:41.517Z,1.95
2022-11-15T17:23:14.365Z,1.40
2022-11-15T17:25:41.482Z,1.80
2022-11-15T17:28:08.194Z,1.40
2022-11-15T17:30:35.676Z,1.10
2022-11-15T17:33:02.484Z,1.77
2022-11-15T17:35:29.351Z,1.23
2022-11-15T17:37:56.146Z,1.15
2022-11-15T17:40:22.892Z,1.15
2022-11-15T17:42:49.685Z,1.33
2022-11-15T17:45:16.545Z,1.42
2022-11-15T17:47:43.245Z,1.27
2022-11-15T17:50:10.642Z,1.20
2022-11-15T17:52:37.649Z,1.48
2022-11-15T17:55:04.609Z,1.15
2022-11-15T17:57:31.320Z,1.67
2022-11-15T17:59:58.058Z,1.63
2022-11-15T18:02:24.752Z,1.77
2022-11-15T18:04:51.461Z,1.92
2022-11-15T18:07:18.222Z,1.90
2022-11-15T18:09:45.444Z,2.00
2022-11-15T18:12:12.428Z,2.28
2022-11-15T18:14:39.388Z,1.92
2022-11-15T18:17:06.588Z,2.10
2022-11-15T18:19:33.598Z,2.20
2022-11-15T18:22:01.354Z,2.03
2022-11-15T18:24:30.738Z,1.63
2022-11-15T18:26:58.389Z,1.80
2022-11-15T18:29:25.502Z,1.65
2022-11-15T18:31:55.611Z,1.70
2022-11-15T18:34:24.889Z,1.92
2022-11-15T18:36:52.958Z,1.40
2022-11-15T18:39:20.550Z,1.52
2022-11-15T18:41:47.979Z,1.38
2022-11-15T18:44:15.569Z,1.50
2022-11-15T18:46:44.990Z,1.30
2022-11-15T18:49:13.647Z,1.70
2022-11-15T18:51:42.048Z,1.85
2022-11-15T18:54:11.396Z,1.58
2022-11-15T18:56:38.923Z,1.58
2022-11-15T18:59:06.441Z,1.30
2022-11-15T19:01:35.649Z,1.30
2022-11-15T19:04:22.571Z,1.45
2022-11-15T19:06:50.276Z,1.50
2022-11-15T19:09:21.560Z,1.45
2022-11-15T19:11:51.199Z,1.23
2022-11-15T19:14:18.606Z,1.27
2022-11-15T19:16:52.326Z,1.52
2022-11-15T19:19:21.787Z,1.38
2022-11-15T19:21:48.852Z,1.17
2022-11-15T19:24:15.651Z,1.52
2022-11-15T19:26:43.234Z,1.15
2022-11-15T19:29:10.657Z,1.58
2022-11-15T19:31:38.163Z,1.38
2022-11-15T19:34:05.891Z,1.25
2022-11-15T19:36:37.892Z,1.20
2022-11-15T19:39:09.603Z,1.48
2022-11-15T19:41:38.574Z,1.33
2022-11-15T19:44:06.434Z,1.50
2022-11-15T19:46:34.395Z,1.55
2022-11-15T19:49:01.718Z,1.73
2022-11-15T19:51:30.355Z,1.55
2022-11-15T19:53:59.759Z,1.63
2022-11-15T19:56:26.525Z,1.35
2022-11-15T19:58:55.261Z,1.65
2022-11-15T20:01:33.701Z,2.25
2022-11-15T20:04:00.977Z,1.85
2022-11-15T20:06:33.357Z,1.90
2022-11-15T20:09:00.136Z,2.50
2022-11-15T20:11:26.976Z,2.22
2022-11-15T20:13:58.457Z,2.95
2022-11-15T20:16:25.599Z,2.40
2022-11-15T20:18:53.162Z,2.63
2022-11-15T20:21:21.749Z,2.33
2022-11-15T20:23:50.627Z,2.10
2022-11-15T20:26:18.586Z,3.13
2022-11-15T20:28:45.489Z,2.38
2022-11-15T20:31:12.812Z,3.00
2022-11-15T20:33:39.825Z,2.63
2022-11-15T20:36:15.286Z,2.83
2022-11-15T20:38:42.145Z,2.80
2022-11-15T20:41:10.803Z,2.63
2022-11-15T20:43:37.613Z,2.28
2022-11-15T20:46:04.736Z,2.58
2022-11-15T20:48:31.907Z,2.63
2022-11-15T20:51:12.245Z,2.42
2022-11-15T20:53:39.894Z,2.50
2022-11-15T20:56:11.031Z,3.38
2022-11-15T20:58:38.076Z,3.53
2022-11-15T21:01:06.933Z,3.45
2022-11-15T21:03:34.440Z,3.17
2022-11-15T21:06:01.389Z,2.90
2022-11-15T21:08:28.163Z,2.67
2022-11-15T21:11:13.929Z,3.05
2022-11-15T21:13:40.603Z,2.25
2022-11-15T21:16:07.853Z,2.40
2022-11-15T21:18:34.747Z,1.50
2022-11-15T21:21:03.779Z,1.83
2022-11-15T21:23:30.530Z,2.25
2022-11-15T21:25:57.243Z,2.88
2022-11-15T21:28:24.195Z,3.63
2022-11-15T21:31:00.101Z,2.75
2022-11-15T21:33:27.677Z,1.90
2022-11-15T21:35:55.870Z,1.80
2022-11-15T21:38:24.208Z,1.80
2022-11-15T21:40:52.280Z,1.70
2022-11-15T21:43:20.097Z,1.42
2022-11-15T21:46:00.865Z,1.42
2022-11-15T21:48:29.331Z,1.70
2022-11-15T21:51:07.536Z,1.65
2022-11-15T21:53:34.967Z,2.05
2022-11-15T21:56:02.494Z,1.60
2022-11-15T21:58:30.052Z,1.58
2022-11-15T22:01:15.933Z,1.77
2022-11-15T22:03:43.562Z,1.80
2022-11-15T22:06:16.030Z,1.52
2022-11-15T22:08:45.992Z,1.67
2022-11-15T22:11:13.590Z,1.83
2022-11-15T22:13:40.509Z,1.95
2022-11-15T22:16:08.850Z,1.30
2022-11-15T22:18:36.306Z,2.08
2022-11-15T22:21:05.888Z,1.85
2022-11-15T22:23:34.166Z,1.20
2022-11-15T22:26:01.104Z,1.77
2022-11-15T22:28:28.432Z,1.80
2022-11-15T22:30:55.538Z,2.13
2022-11-15T22:33:26.009Z,1.75
2022-11-15T22:35:53.020Z,1.70
2022-11-15T22:38:20.372Z,1.73
2022-11-15T22:40:47.412Z,2.17
2022-11-15T22:43:17.322Z,1.67
2022-11-15T22:45:56.808Z,1.65
2022-11-15T22:48:26.564Z,1.70
2022-11-15T22:50:53.914Z,1.48
2022-11-15T22:53:22.192Z,1.52
2022-11-15T22:56:00.199Z,2.00
2022-11-15T22:58:30.452Z,2.30
2022-11-15T23:00:59.627Z,2.42
2022-11-15T23:03:27.783Z,1.88
2022-11-15T23:05:54.894Z,1.50
2022-11-15T23:08:23.501Z,1.48
2022-11-15T23:11:09.060Z,2.25
2022-11-15T23:13:35.854Z,1.80
2022-11-15T23:16:23.266Z,1.85
2022-11-15T23:18:55.956Z,1.65
2022-11-15T23:21:44.678Z,2.33
2022-11-15T23:24:13.665Z,1.95
2022-11-15T23:26:41.919Z,2.15
2022-11-15T23:29:11.075Z,1.80
2022-11-15T23:32:02.192Z,1.77
2022-11-15T23:34:30.887Z,1.40
2022-11-15T23:36:58.645Z,1.70
2022-11-15T23:39:25.490Z,2.35
2022-11-15T23:41:52.221Z,1.77
2022-11-15T23:44:22.169Z,1.92
2022-11-15T23:46:49.047Z,2.13
2022-11-15T23:49:15.894Z,2.15
2022-11-15T23:51:42.743Z,1.70
2022-11-15T23:54:09.666Z,1.90
2022-11-15T23:56:36.452Z,2.50
2022-11-15T23:59:03.829Z,2.20
